Terminal Aerodrome Forecast
Issued by NWS Melbourne, FL

Home | Current Version | Previous Version | Text Only | Print | Product List | Glossary On
Versions: 1 2 3 4 5 6 7 8 9 10 11 12 13
000
FTUS42 KMLB 301700 RRA
TAFVRB
TAF
KVRB 301744Z 3018/3118 07008KT P6SM SCT040 SCT250
     FM310200 VRB03KT P6SM FEW040 SCT250
     FM311300 29007KT P6SM SCT250=

USA.gov is the U.S. government's official web portal to all federal, state and local government web resources and services.